createdAt,value
2017-08-30T00:00:24.506Z,25.4
2017-08-30T00:01:05.076Z,25.39
2017-08-30T00:01:45.608Z,25.4
2017-08-30T00:02:26.146Z,25.36
2017-08-30T00:03:06.714Z,25.3
2017-08-30T00:03:47.229Z,25.35
2017-08-30T00:04:27.803Z,25.36
2017-08-30T00:05:08.400Z,25.38
2017-08-30T00:05:48.909Z,25.4
2017-08-30T00:06:29.460Z,25.32
2017-08-30T00:07:09.998Z,25.35
2017-08-30T00:07:50.544Z,25.4
2017-08-30T00:08:31.124Z,25.36
2017-08-30T00:09:11.638Z,25.32
2017-08-30T00:09:52.208Z,25.35
2017-08-30T00:10:32.718Z,25.3
2017-08-30T00:11:13.271Z,25.39
2017-08-30T00:11:53.819Z,25.33
2017-08-30T00:12:34.328Z,25.32
2017-08-30T00:13:14.900Z,25.28
2017-08-30T00:13:55.411Z,25.35
2017-08-30T00:14:35.962Z,25.36
2017-08-30T00:15:16.536Z,25.18
2017-08-30T00:15:57.069Z,25.3
2017-08-30T00:16:37.603Z,25.18
2017-08-30T00:17:18.083Z,25.14
2017-08-30T00:17:58.680Z,25.27
2017-08-30T00:18:39.298Z,25.1
2017-08-30T00:19:19.785Z,25.08
2017-08-30T00:20:00.392Z,25.09
2017-08-30T00:20:40.937Z,25.13
2017-08-30T00:21:21.456Z,25.1
2017-08-30T00:22:02.032Z,25.03
2017-08-30T00:22:42.583Z,25.14
2017-08-30T00:23:23.120Z,25.09
2017-08-30T00:24:03.678Z,25.06
2017-08-30T00:24:44.219Z,25.09
2017-08-30T00:25:24.719Z,25.05
2017-08-30T00:26:05.316Z,25.03
2017-08-30T00:26:45.813Z,25
2017-08-30T00:27:26.411Z,25.05
2017-08-30T00:28:06.926Z,25
2017-08-30T00:28:47.467Z,25
2017-08-30T00:29:28.059Z,25.14
2017-08-30T00:30:08.645Z,25.09
2017-08-30T00:30:49.154Z,25.02
2017-08-30T00:31:29.727Z,25.03
2017-08-30T00:32:10.202Z,25
2017-08-30T00:32:50.785Z,25.06
2017-08-30T00:33:31.341Z,25.08
2017-08-30T00:34:11.834Z,24.98
2017-08-30T00:34:52.451Z,24.96
2017-08-30T00:35:33.026Z,24.91
2017-08-30T00:36:13.578Z,24.96
2017-08-30T00:36:54.079Z,25.02
2017-08-30T00:37:34.633Z,25.05
2017-08-30T00:38:15.193Z,25
2017-08-30T00:38:55.747Z,24.93
2017-08-30T00:39:36.311Z,24.93
2017-08-30T00:40:17.031Z,24.9
2017-08-30T00:40:57.539Z,24.95
2017-08-30T00:41:38.090Z,24.98
2017-08-30T00:42:18.675Z,25.05
2017-08-30T00:42:59.193Z,24.99
2017-08-30T00:43:39.734Z,25
2017-08-30T00:44:20.281Z,25.03
2017-08-30T00:45:00.842Z,25
2017-08-30T00:45:41.373Z,25
2017-08-30T00:46:21.945Z,25.03
2017-08-30T00:47:02.504Z,25.03
2017-08-30T00:47:43.202Z,25.02
2017-08-30T00:48:23.757Z,25.02
2017-08-30T00:49:04.299Z,25.02
2017-08-30T00:49:44.846Z,24.99
2017-08-30T00:50:25.366Z,25.03
2017-08-30T00:51:05.929Z,25
2017-08-30T00:51:46.479Z,24.98
2017-08-30T00:52:27.000Z,24.88
2017-08-30T00:55:48.057Z,24.99
2017-08-30T00:56:28.608Z,24.99
2017-08-30T00:57:09.013Z,24.98
2017-08-30T00:57:49.565Z,24.91
2017-08-30T00:58:30.106Z,24.9
2017-08-30T00:59:10.624Z,25
2017-08-30T00:59:51.178Z,24.9
2017-08-30T01:00:31.662Z,24.91
2017-08-30T01:01:12.257Z,24.88
2017-08-30T01:01:52.822Z,24.78
2017-08-30T01:02:33.343Z,24.85
2017-08-30T01:03:13.897Z,24.83
2017-08-30T01:03:54.381Z,24.85
2017-08-30T01:04:34.940Z,24.8
2017-08-30T01:05:15.488Z,24.78
2017-08-30T01:05:56.037Z,24.85
2017-08-30T01:06:36.573Z,24.85
2017-08-30T01:07:17.131Z,24.9
2017-08-30T01:07:57.674Z,24.83
2017-08-30T01:08:38.217Z,24.83
2017-08-30T01:09:18.758Z,24.78
2017-08-30T01:09:59.286Z,24.83
2017-08-30T01:10:39.798Z,24.83
2017-08-30T01:11:20.395Z,24.81
2017-08-30T01:12:00.893Z,24.81
2017-08-30T01:12:41.442Z,24.83
2017-08-30T01:13:22.027Z,24.8
2017-08-30T01:14:02.571Z,24.8
2017-08-30T01:14:43.123Z,24.8
2017-08-30T01:15:23.626Z,24.78
2017-08-30T01:16:04.182Z,24.81
2017-08-30T01:16:44.713Z,24.83
2017-08-30T01:17:25.294Z,24.91
2017-08-30T01:18:05.873Z,24.83
2017-08-30T01:18:46.483Z,24.68
2017-08-30T01:19:26.975Z,24.71
2017-08-30T01:20:07.546Z,24.65
2017-08-30T01:20:48.087Z,24.67
2017-08-30T01:21:28.654Z,24.77
2017-08-30T01:22:09.251Z,24.77
2017-08-30T01:22:49.808Z,24.65
2017-08-30T01:23:30.470Z,24.8
2017-08-30T01:24:11.032Z,24.67
2017-08-30T01:24:51.562Z,24.69
2017-08-30T01:25:32.117Z,24.64
2017-08-30T01:26:12.650Z,24.67
2017-08-30T01:26:53.173Z,24.67
2017-08-30T01:27:33.722Z,24.67
2017-08-30T01:28:14.297Z,24.67
2017-08-30T01:28:54.861Z,24.65
2017-08-30T01:29:35.311Z,24.64
2017-08-30T01:30:15.852Z,24.69
2017-08-30T01:30:56.507Z,24.69
2017-08-30T01:31:36.986Z,24.65
2017-08-30T01:32:17.571Z,24.67
2017-08-30T01:32:58.162Z,24.71
2017-08-30T01:33:38.744Z,24.6
2017-08-30T01:34:19.234Z,24.61
2017-08-30T01:34:59.791Z,24.62
2017-08-30T01:35:40.516Z,24.62
2017-08-30T01:36:21.044Z,24.62
2017-08-30T01:37:01.543Z,24.65
2017-08-30T01:37:42.085Z,24.65
2017-08-30T01:38:22.599Z,24.6
2017-08-30T01:39:03.132Z,24.62
2017-08-30T01:39:43.669Z,24.61
2017-08-30T01:40:24.249Z,24.64
2017-08-30T01:41:04.790Z,24.64
2017-08-30T01:41:45.410Z,24.53
2017-08-30T01:42:26.000Z,24.55
2017-08-30T01:43:06.522Z,24.53
2017-08-30T01:43:47.043Z,24.53
2017-08-30T01:44:27.695Z,24.5
2017-08-30T01:45:08.256Z,24.46
2017-08-30T01:45:48.820Z,24.45
2017-08-30T01:46:29.375Z,24.47
2017-08-30T01:47:09.938Z,24.43
2017-08-30T01:47:50.531Z,24.45
2017-08-30T01:48:31.150Z,24.57
2017-08-30T01:49:11.667Z,24.47
2017-08-30T01:49:52.306Z,24.55
2017-08-30T01:50:32.831Z,24.53
2017-08-30T01:51:13.381Z,24.61
2017-08-30T01:51:53.976Z,24.55
2017-08-30T01:52:34.640Z,24.49
2017-08-30T01:53:15.126Z,24.53
2017-08-30T01:53:55.717Z,24.47
2017-08-30T01:54:36.303Z,24.46
2017-08-30T01:55:16.828Z,24.5
2017-08-30T01:55:57.421Z,24.53
2017-08-30T01:56:37.961Z,24.49
2017-08-30T01:57:18.447Z,24.52
2017-08-30T01:57:59.042Z,24.49
2017-08-30T01:58:39.578Z,24.52
2017-08-30T01:59:20.129Z,24.42
2017-08-30T02:00:00.698Z,24.4
2017-08-30T02:00:41.226Z,24.4
2017-08-30T02:01:21.740Z,24.5
2017-08-30T02:02:02.321Z,24.39
2017-08-30T02:02:42.810Z,24.45
2017-08-30T02:03:23.405Z,24.39
2017-08-30T02:04:03.973Z,24.43
2017-08-30T02:04:44.450Z,24.46
2017-08-30T02:05:25.041Z,24.47
2017-08-30T02:06:05.560Z,24.49
2017-08-30T02:06:46.158Z,24.42
2017-08-30T02:07:26.688Z,24.47
2017-08-30T02:08:07.263Z,24.5
2017-08-30T02:08:47.806Z,24.5
2017-08-30T02:09:28.377Z,24.45
2017-08-30T02:10:08.969Z,24.47
2017-08-30T02:10:49.520Z,24.47
2017-08-30T02:11:30.125Z,24.49
2017-08-30T02:12:10.608Z,24.49
2017-08-30T02:12:51.171Z,24.52
2017-08-30T02:13:31.740Z,24.49
2017-08-30T02:14:12.351Z,24.49
2017-08-30T02:14:52.913Z,24.45
2017-08-30T02:15:33.374Z,24.43
2017-08-30T02:16:13.930Z,24.46
2017-08-30T02:16:54.451Z,24.47
2017-08-30T02:17:35.034Z,24.43
2017-08-30T02:18:15.579Z,24.43
2017-08-30T02:18:56.087Z,24.45
2017-08-30T02:19:36.615Z,24.47
2017-08-30T02:20:17.152Z,24.45
2017-08-30T02:20:57.758Z,24.46
2017-08-30T02:21:38.359Z,24.42
2017-08-30T02:22:18.905Z,24.35
2017-08-30T02:22:59.457Z,24.39
2017-08-30T02:23:40.026Z,24.32
2017-08-30T02:24:20.586Z,24.35
2017-08-30T02:25:01.207Z,24.35
2017-08-30T02:25:41.688Z,24.39
2017-08-30T02:26:22.249Z,24.35
2017-08-30T02:27:02.820Z,24.42
2017-08-30T02:27:43.382Z,24.45
2017-08-30T02:28:23.942Z,24.39
2017-08-30T02:29:04.524Z,24.39
2017-08-30T02:29:45.056Z,24.49
2017-08-30T02:30:25.565Z,24.39
2017-08-30T02:31:06.140Z,24.37
2017-08-30T02:31:46.684Z,24.39
2017-08-30T02:32:27.228Z,24.32
2017-08-30T02:33:07.760Z,24.37
2017-08-30T02:33:48.304Z,24.39
2017-08-30T02:34:28.997Z,24.4
2017-08-30T02:35:09.466Z,24.39
2017-08-30T02:35:50.103Z,24.3
2017-08-30T02:36:30.648Z,24.42
2017-08-30T02:37:11.195Z,24.39
2017-08-30T02:37:51.761Z,24.37
2017-08-30T02:38:32.244Z,24.32
2017-08-30T02:39:12.847Z,24.31
2017-08-30T02:39:53.408Z,24.32
2017-08-30T02:40:34.028Z,24.28
2017-08-30T02:41:14.530Z,24.31
2017-08-30T02:41:55.199Z,24.37
2017-08-30T02:42:35.827Z,24.31
2017-08-30T02:43:16.323Z,24.31
2017-08-30T02:43:56.853Z,24.3
2017-08-30T02:44:37.364Z,24.31
2017-08-30T02:45:17.909Z,24.34
2017-08-30T02:45:58.519Z,24.27
2017-08-30T02:46:39.035Z,24.34
2017-08-30T02:47:19.587Z,24.25
2017-08-30T02:48:00.127Z,24.31
2017-08-30T02:48:40.700Z,24.28
2017-08-30T02:49:21.250Z,24.28
2017-08-30T02:50:01.834Z,24.28
2017-08-30T02:50:42.452Z,24.28
2017-08-30T02:51:22.955Z,24.25
2017-08-30T02:52:03.506Z,24.22
2017-08-30T02:52:44.064Z,24.27
2017-08-30T02:53:24.585Z,24.1
2017-08-30T02:54:05.139Z,24.25
2017-08-30T02:54:45.714Z,24.16
2017-08-30T02:55:26.292Z,24.25
2017-08-30T02:56:06.824Z,24.2
2017-08-30T02:56:47.380Z,24.22
2017-08-30T02:57:27.933Z,24.28
2017-08-30T02:58:08.507Z,24.21
2017-08-30T02:58:49.061Z,24.22
2017-08-30T02:59:29.590Z,24.3
2017-08-30T03:00:10.081Z,24.27
2017-08-30T03:00:50.719Z,24.27
2017-08-30T03:01:31.216Z,24.31
2017-08-30T03:02:11.818Z,24.3
2017-08-30T03:02:52.352Z,24.3
2017-08-30T03:03:32.875Z,24.34
2017-08-30T03:04:13.415Z,24.24
2017-08-30T03:04:54.005Z,24.25
2017-08-30T03:05:34.526Z,24.27
2017-08-30T03:06:15.085Z,24.25
2017-08-30T03:06:55.604Z,24.22
2017-08-30T03:07:36.156Z,24.31
2017-08-30T03:08:16.913Z,24.24
2017-08-30T03:08:57.353Z,24.25
2017-08-30T03:09:38.025Z,24.27
2017-08-30T03:10:19.145Z,24.25
2017-08-30T03:10:59.970Z,24.27
2017-08-30T03:11:40.626Z,24.27
2017-08-30T03:12:22.258Z,24.28
2017-08-30T03:13:02.948Z,24.15
2017-08-30T03:13:44.091Z,24.25
2017-08-30T03:14:25.595Z,24.3
2017-08-30T03:15:06.670Z,24.27
2017-08-30T03:15:47.216Z,24.27
2017-08-30T03:16:27.745Z,24.25
2017-08-30T03:17:08.232Z,24.27
2017-08-30T03:17:48.754Z,24.24
2017-08-30T03:18:29.373Z,24.21
2017-08-30T03:19:09.900Z,24.21
2017-08-30T03:19:50.403Z,24.2
2017-08-30T03:20:30.990Z,24.09
2017-08-30T03:21:11.526Z,24.18
2017-08-30T03:21:52.084Z,24.1
2017-08-30T03:22:32.605Z,24.16
2017-08-30T03:23:13.163Z,24.15
2017-08-30T03:23:53.709Z,24.15
2017-08-30T03:24:34.406Z,24.06
2017-08-30T03:25:14.967Z,24.12
2017-08-30T03:25:55.584Z,24.12
2017-08-30T03:26:36.143Z,24.12
2017-08-30T03:27:16.716Z,24.09
2017-08-30T03:27:57.266Z,24.1
2017-08-30T03:28:37.798Z,24.06
2017-08-30T03:29:18.304Z,24.02
2017-08-30T03:29:58.934Z,24.08
2017-08-30T03:30:39.430Z,24.03
2017-08-30T03:31:19.963Z,24.06
2017-08-30T03:32:00.480Z,24.08
2017-08-30T03:32:41.087Z,23.97
2017-08-30T03:33:21.611Z,24.09
2017-08-30T03:34:02.214Z,23.97
2017-08-30T03:34:42.766Z,24.08
2017-08-30T03:35:23.317Z,24
2017-08-30T03:36:03.924Z,23.97
2017-08-30T03:36:44.487Z,24.05
2017-08-30T03:37:25.076Z,23.9
2017-08-30T03:38:05.708Z,23.85
2017-08-30T03:38:46.238Z,23.93
2017-08-30T03:39:26.841Z,23.94
2017-08-30T03:40:07.370Z,23.93
2017-08-30T03:40:47.949Z,23.88
2017-08-30T03:41:28.430Z,23.88
2017-08-30T03:42:09.031Z,23.85
2017-08-30T03:42:49.613Z,23.87
2017-08-30T03:43:30.152Z,23.98
2017-08-30T03:44:10.689Z,23.97
2017-08-30T03:44:51.213Z,23.94
2017-08-30T03:45:31.781Z,24
2017-08-30T03:46:12.324Z,23.95
2017-08-30T03:46:52.910Z,23.93
2017-08-30T03:47:33.507Z,23.98
2017-08-30T03:48:14.028Z,23.88
2017-08-30T03:48:54.571Z,23.83
2017-08-30T03:49:35.112Z,23.75
2017-08-30T03:50:15.642Z,23.78
2017-08-30T03:50:56.174Z,23.84
2017-08-30T03:51:36.730Z,23.72
2017-08-30T03:52:17.332Z,23.72
2017-08-30T03:52:57.949Z,23.72
2017-08-30T03:53:38.398Z,23.61
2017-08-30T03:54:18.987Z,23.65
2017-08-30T03:54:59.543Z,23.55
2017-08-30T03:55:40.097Z,23.54
2017-08-30T03:56:20.651Z,23.66
2017-08-30T03:57:01.144Z,23.43
2017-08-30T03:57:41.686Z,23.54
2017-08-30T03:58:22.266Z,23.43
2017-08-30T03:59:02.834Z,23.46
2017-08-30T03:59:43.354Z,23.5
2017-08-30T04:00:23.918Z,23.46
2017-08-30T04:01:04.475Z,23.55
2017-08-30T04:01:45.046Z,23.46
2017-08-30T04:02:25.563Z,23.57
2017-08-30T04:03:06.060Z,23.54
2017-08-30T04:03:46.648Z,23.5
2017-08-30T04:04:27.152Z,23.6
2017-08-30T04:05:07.746Z,23.54
2017-08-30T04:05:48.281Z,23.48
2017-08-30T04:06:28.876Z,23.58
2017-08-30T04:07:09.405Z,23.55
2017-08-30T04:07:49.937Z,23.63
2017-08-30T04:08:30.483Z,23.68
2017-08-30T04:09:11.008Z,23.66
2017-08-30T04:09:51.639Z,23.75
2017-08-30T04:10:32.113Z,23.7
2017-08-30T04:11:12.712Z,23.6
2017-08-30T04:11:53.236Z,23.68
2017-08-30T04:12:33.808Z,23.72
2017-08-30T04:13:14.343Z,23.61
2017-08-30T04:13:54.865Z,23.76
2017-08-30T04:14:35.404Z,23.76
2017-08-30T04:15:16.002Z,23.72
2017-08-30T04:15:56.522Z,23.72
2017-08-30T04:16:37.013Z,23.72
2017-08-30T04:17:17.593Z,23.75
2017-08-30T04:17:58.096Z,23.68
2017-08-30T04:18:38.663Z,23.6
2017-08-30T04:19:19.240Z,23.76
2017-08-30T04:19:59.797Z,23.65
2017-08-30T04:20:40.353Z,23.7
2017-08-30T04:21:21.464Z,23.58
2017-08-30T04:22:01.551Z,23.6
2017-08-30T04:22:42.051Z,23.54
2017-08-30T04:23:22.588Z,23.47
2017-08-30T04:24:03.167Z,23.47
2017-08-30T04:24:43.675Z,23.6
2017-08-30T04:25:24.208Z,23.55
2017-08-30T04:26:04.846Z,23.63
2017-08-30T04:26:45.366Z,23.58
2017-08-30T04:27:25.931Z,23.68
2017-08-30T04:28:06.459Z,23.58
2017-08-30T04:28:46.999Z,23.7
2017-08-30T04:29:27.570Z,23.73
2017-08-30T04:30:08.070Z,23.73
2017-08-30T04:30:48.648Z,23.7
2017-08-30T04:31:29.264Z,23.75
2017-08-30T04:32:09.853Z,23.75
2017-08-30T04:32:50.404Z,23.72
2017-08-30T04:33:30.975Z,23.76
2017-08-30T04:34:11.528Z,23.72
2017-08-30T04:34:52.046Z,23.73
2017-08-30T04:35:32.874Z,23.78
2017-08-30T04:36:13.323Z,23.73
2017-08-30T04:36:53.910Z,23.84
2017-08-30T04:37:34.451Z,23.85
2017-08-30T04:38:14.973Z,23.93
2017-08-30T04:38:56.000Z,23.94
2017-08-30T04:39:36.606Z,23.93
2017-08-30T04:40:17.119Z,24
2017-08-30T04:40:57.684Z,24
2017-08-30T04:41:38.225Z,23.95
2017-08-30T04:42:18.782Z,23.91
2017-08-30T04:42:59.319Z,23.83
2017-08-30T04:43:39.797Z,23.9
2017-08-30T04:44:20.330Z,23.85
2017-08-30T04:45:00.875Z,23.94
2017-08-30T04:45:41.459Z,23.95
2017-08-30T04:46:21.947Z,23.98
2017-08-30T04:47:02.537Z,24
2017-08-30T04:47:43.041Z,24.03
2017-08-30T04:48:23.587Z,24.03
2017-08-30T04:49:04.116Z,23.98
2017-08-30T04:49:44.629Z,24.06
2017-08-30T04:50:25.204Z,24.06
2017-08-30T04:51:05.769Z,23.94
2017-08-30T04:51:46.278Z,23.94
2017-08-30T04:52:26.790Z,23.85
2017-08-30T04:53:07.342Z,23.88
2017-08-30T04:53:47.919Z,23.94
2017-08-30T04:54:28.460Z,23.83
2017-08-30T04:55:08.999Z,23.85
2017-08-30T04:55:49.546Z,23.91
2017-08-30T04:56:30.084Z,24.02
2017-08-30T04:57:10.614Z,23.97
2017-08-30T04:57:51.159Z,24.05
2017-08-30T04:58:31.687Z,24.08
2017-08-30T04:59:12.232Z,24.08
2017-08-30T04:59:52.736Z,24.09
2017-08-30T05:00:33.280Z,24.08
2017-08-30T05:01:13.819Z,24.12
2017-08-30T05:01:54.418Z,24.09
2017-08-30T05:02:34.943Z,24.09
2017-08-30T05:03:15.467Z,24.12
2017-08-30T05:03:56.009Z,24.06
2017-08-30T05:04:36.502Z,24.1
2017-08-30T05:05:17.126Z,24.08
2017-08-30T05:05:57.669Z,24.08
2017-08-30T05:06:38.197Z,24.1
2017-08-30T05:07:18.807Z,24.13
2017-08-30T05:07:59.323Z,24.25
2017-08-30T05:08:39.859Z,24.27
2017-08-30T05:09:20.348Z,24.18
2017-08-30T05:10:00.940Z,24.21
2017-08-30T05:10:41.454Z,24.12
2017-08-30T05:11:21.988Z,24.24
2017-08-30T05:12:02.556Z,24.06
2017-08-30T05:12:43.145Z,24.16
2017-08-30T05:13:23.626Z,24.12
2017-08-30T05:14:04.240Z,24.15
2017-08-30T05:14:44.854Z,24.12
2017-08-30T05:15:25.284Z,24.13
2017-08-30T05:16:05.849Z,24.27
2017-08-30T05:16:46.359Z,24.27
2017-08-30T05:17:26.940Z,24.28
2017-08-30T05:18:07.456Z,24.27
2017-08-30T05:18:48.016Z,24.3
2017-08-30T05:19:28.521Z,24.3
2017-08-30T05:20:09.066Z,24.24
2017-08-30T05:20:49.624Z,24.27
2017-08-30T05:21:30.232Z,24.31
2017-08-30T05:22:10.772Z,24.34
2017-08-30T05:22:51.319Z,24.31
2017-08-30T05:23:31.856Z,24.27
2017-08-30T05:24:12.502Z,24.28
2017-08-30T05:24:53.007Z,24.3
2017-08-30T05:25:33.556Z,24.25
2017-08-30T05:26:14.127Z,24.28
2017-08-30T05:26:54.777Z,24.35
2017-08-30T05:27:35.342Z,24.3
2017-08-30T05:28:15.876Z,24.32
2017-08-30T05:28:56.436Z,24.32
2017-08-30T05:29:37.008Z,24.34
2017-08-30T05:30:19.241Z,24.4
2017-08-30T05:30:59.823Z,24.39
2017-08-30T05:31:40.437Z,24.31
2017-08-30T05:32:20.965Z,24.3
2017-08-30T05:33:01.553Z,24.39
2017-08-30T05:33:42.123Z,24.42
2017-08-30T05:34:22.682Z,24.37
2017-08-30T05:35:03.193Z,24.4
2017-08-30T05:35:44.023Z,24.46
2017-08-30T05:36:24.853Z,24.46
2017-08-30T05:37:05.375Z,24.49
2017-08-30T05:37:46.084Z,24.46
2017-08-30T05:38:26.478Z,24.49
2017-08-30T05:39:07.117Z,24.58
2017-08-30T05:39:47.754Z,24.6
2017-08-30T05:40:28.303Z,24.6
2017-08-30T05:41:08.905Z,24.55
2017-08-30T05:41:49.487Z,24.52
2017-08-30T05:42:30.085Z,24.6
2017-08-30T05:43:10.640Z,24.55
2017-08-30T05:43:51.167Z,24.52
2017-08-30T05:44:31.842Z,24.57
2017-08-30T05:45:12.549Z,24.5
2017-08-30T05:45:52.999Z,24.6
2017-08-30T05:46:33.588Z,24.5
2017-08-30T05:47:14.233Z,24.57
2017-08-30T05:47:54.869Z,24.58
2017-08-30T05:48:35.422Z,24.67
2017-08-30T05:49:15.979Z,24.62
2017-08-30T05:49:56.528Z,24.65
2017-08-30T05:50:37.209Z,24.6
2017-08-30T05:51:17.894Z,24.71
2017-08-30T05:51:58.428Z,24.65
2017-08-30T05:52:39.006Z,24.69
2017-08-30T05:53:19.508Z,24.73
2017-08-30T05:54:00.228Z,24.71
2017-08-30T05:54:40.704Z,24.83
2017-08-30T05:55:21.298Z,24.78
2017-08-30T05:56:01.809Z,24.83
2017-08-30T05:56:42.409Z,24.8
2017-08-30T05:57:22.997Z,24.78
2017-08-30T05:58:03.502Z,24.8
2017-08-30T05:58:44.056Z,24.9
2017-08-30T05:59:24.585Z,24.83
2017-08-30T06:00:05.115Z,24.96
2017-08-30T06:00:45.666Z,24.91
2017-08-30T06:01:26.212Z,24.95
2017-08-30T06:02:06.795Z,24.96
2017-08-30T06:02:47.317Z,25.03
2017-08-30T06:03:27.880Z,25.09
2017-08-30T06:04:08.451Z,25.05
2017-08-30T06:04:49.018Z,25.06
2017-08-30T06:05:29.570Z,25.09
2017-08-30T06:06:10.104Z,25.13
2017-08-30T06:06:50.628Z,25.14
2017-08-30T06:07:31.250Z,25.05
2017-08-30T06:08:11.799Z,25.1
2017-08-30T06:08:52.309Z,25.1
2017-08-30T06:09:32.988Z,25.14
2017-08-30T06:10:13.433Z,25.28
2017-08-30T06:10:53.997Z,25.18
2017-08-30T06:11:34.608Z,25.21
2017-08-30T06:12:15.145Z,25.36
2017-08-30T06:12:55.701Z,25.33
2017-08-30T06:13:36.245Z,25.32
2017-08-30T06:14:16.823Z,25.38
2017-08-30T06:14:57.343Z,25.4
2017-08-30T06:15:38.003Z,25.45
2017-08-30T06:16:18.560Z,25.54
2017-08-30T06:16:59.190Z,25.64
2017-08-30T06:17:39.719Z,25.65
2017-08-30T06:18:20.283Z,25.62
2017-08-30T06:19:00.834Z,25.62
2017-08-30T06:19:41.388Z,25.69
2017-08-30T06:20:22.056Z,25.64
2017-08-30T06:21:02.583Z,25.72
2017-08-30T06:21:43.172Z,25.73
2017-08-30T06:22:23.732Z,25.79
2017-08-30T06:23:04.298Z,25.79
2017-08-30T06:23:44.832Z,25.8
2017-08-30T06:24:25.459Z,25.91
2017-08-30T06:25:06.010Z,25.79
2017-08-30T06:25:46.634Z,25.79
2017-08-30T06:26:27.113Z,25.97
2017-08-30T06:27:07.768Z,25.98
2017-08-30T06:27:48.276Z,25.94
2017-08-30T06:28:28.810Z,25.92
2017-08-30T06:29:09.355Z,25.9
2017-08-30T06:29:49.911Z,25.92
2017-08-30T06:30:30.498Z,25.99
2017-08-30T06:31:11.014Z,26.02
2017-08-30T06:31:51.598Z,25.99
2017-08-30T06:32:32.157Z,26.05
2017-08-30T06:33:12.733Z,26.05
2017-08-30T06:33:53.267Z,26.05
2017-08-30T06:34:33.861Z,26.06
2017-08-30T06:35:14.476Z,26.02
2017-08-30T06:35:55.086Z,26.05
2017-08-30T06:36:35.567Z,26.1
2017-08-30T06:37:16.150Z,26.12
2017-08-30T06:37:56.693Z,26.15
2017-08-30T06:38:37.238Z,26.18
2017-08-30T06:39:17.803Z,26.02
2017-08-30T06:39:58.356Z,26.12
2017-08-30T06:40:38.908Z,26.09
2017-08-30T06:41:19.419Z,26.12
2017-08-30T06:41:59.999Z,26.17
2017-08-30T06:42:40.573Z,26.21
2017-08-30T06:43:22.066Z,26.13
2017-08-30T06:44:02.617Z,26.23
2017-08-30T06:44:43.221Z,26.23
2017-08-30T06:45:23.780Z,26.32
2017-08-30T06:46:04.329Z,26.36
2017-08-30T06:46:44.879Z,26.32
2017-08-30T06:47:25.456Z,26.28
2017-08-30T06:48:05.976Z,26.29
2017-08-30T06:48:46.518Z,26.3
2017-08-30T06:49:27.058Z,26.36
2017-08-30T06:50:07.614Z,26.33
2017-08-30T06:50:48.177Z,26.3
2017-08-30T06:51:28.727Z,26.15
2017-08-30T06:52:09.246Z,26.13
2017-08-30T06:52:49.822Z,26.23
2017-08-30T06:53:30.368Z,26.26
2017-08-30T06:54:10.902Z,26.28
2017-08-30T06:54:51.516Z,26.26
2017-08-30T06:55:32.100Z,26.3
2017-08-30T06:56:12.605Z,26.37
2017-08-30T06:56:53.139Z,26.43
2017-08-30T06:57:33.668Z,26.52
2017-08-30T06:58:14.225Z,26.58
2017-08-30T06:58:54.785Z,26.54
2017-08-30T06:59:35.364Z,26.55
2017-08-30T07:00:15.889Z,26.69
2017-08-30T07:00:56.461Z,26.75
2017-08-30T07:01:37.041Z,26.77
2017-08-30T07:02:17.629Z,26.89
2017-08-30T07:02:58.138Z,26.85
2017-08-30T07:03:38.691Z,26.95
2017-08-30T07:04:19.222Z,27.04
2017-08-30T07:04:59.744Z,27.13
2017-08-30T07:05:40.329Z,27.17
2017-08-30T07:06:20.915Z,27.1
2017-08-30T07:07:01.476Z,27.22
2017-08-30T07:07:42.044Z,27.21
2017-08-30T07:08:22.606Z,27.36
2017-08-30T07:09:03.142Z,27.37
2017-08-30T07:09:43.703Z,27.39
2017-08-30T07:10:24.249Z,27.43
2017-08-30T07:11:04.874Z,27.41
2017-08-30T07:11:45.429Z,27.47
2017-08-30T07:12:26.016Z,27.57
2017-08-30T07:13:06.522Z,27.46
2017-08-30T07:13:47.146Z,27.4
2017-08-30T07:14:27.628Z,27.4
2017-08-30T07:15:08.283Z,27.55
2017-08-30T07:15:48.793Z,27.55
2017-08-30T07:16:29.334Z,27.63
2017-08-30T07:17:09.959Z,27.67
2017-08-30T07:17:50.621Z,27.75
2017-08-30T07:18:31.197Z,27.75
2017-08-30T07:19:11.746Z,27.63
2017-08-30T07:19:52.347Z,27.63
2017-08-30T07:20:32.865Z,27.54
2017-08-30T07:21:14.053Z,27.5
2017-08-30T07:21:54.537Z,27.5
2017-08-30T07:22:34.612Z,27.44
2017-08-30T07:23:15.156Z,27.59
2017-08-30T07:23:55.706Z,27.41
2017-08-30T07:24:36.307Z,27.43
2017-08-30T07:25:16.783Z,27.5
2017-08-30T07:25:57.297Z,27.51
2017-08-30T07:26:37.862Z,27.5
2017-08-30T07:27:18.412Z,27.51
2017-08-30T07:27:58.900Z,27.49
2017-08-30T07:28:39.519Z,27.49
2017-08-30T07:29:20.035Z,27.44
2017-08-30T07:30:00.561Z,27.43
2017-08-30T07:30:41.076Z,27.44
2017-08-30T07:31:21.654Z,27.46
2017-08-30T07:32:02.347Z,27.47
2017-08-30T07:32:42.966Z,27.43
2017-08-30T07:33:23.519Z,27.43
2017-08-30T07:34:04.053Z,27.31
2017-08-30T07:34:44.641Z,27.25
2017-08-30T07:35:25.189Z,27.22
2017-08-30T07:36:05.710Z,27.24
2017-08-30T07:36:46.330Z,27.19
2017-08-30T07:37:26.845Z,27.12
2017-08-30T07:38:07.363Z,27.22
2017-08-30T07:38:47.885Z,27.29
2017-08-30T07:39:28.458Z,27.43
2017-08-30T07:40:08.986Z,27.39
2017-08-30T07:40:49.554Z,27.43
2017-08-30T07:41:30.059Z,27.41
2017-08-30T07:42:10.667Z,27.43
2017-08-30T07:42:51.281Z,27.41
2017-08-30T07:43:31.865Z,27.44
2017-08-30T07:44:12.462Z,27.41
2017-08-30T07:44:52.952Z,27.4
2017-08-30T07:45:33.547Z,27.41
2017-08-30T07:46:14.021Z,27.5
2017-08-30T07:46:54.611Z,27.44
2017-08-30T07:47:35.153Z,27.46
2017-08-30T07:48:15.719Z,27.55
2017-08-30T07:48:56.262Z,27.6
2017-08-30T07:49:36.797Z,27.65
2017-08-30T07:50:17.343Z,27.75
2017-08-30T07:51:03.396Z,27.77
2017-08-30T07:51:44.798Z,27.81
2017-08-30T07:52:25.299Z,27.82
2017-08-30T07:53:05.871Z,27.78
2017-08-30T07:53:46.472Z,27.84
2017-08-30T07:54:27.024Z,27.84
2017-08-30T07:55:07.567Z,27.78
2017-08-30T07:55:48.091Z,27.82
2017-08-30T07:56:28.937Z,27.99
2017-08-30T07:57:09.570Z,27.97
2017-08-30T07:57:50.143Z,27.99
2017-08-30T07:58:30.662Z,28.04
2017-08-30T07:59:11.240Z,28.14
2017-08-30T07:59:51.806Z,28.17
2017-08-30T08:00:32.337Z,28.06
2017-08-30T08:01:12.828Z,28.12
2017-08-30T08:01:53.416Z,28.06
2017-08-30T08:02:33.963Z,28.11
2017-08-30T08:03:14.487Z,28.09
2017-08-30T08:03:55.072Z,28.12
2017-08-30T08:04:35.603Z,28.15
2017-08-30T08:05:16.096Z,28.22
2017-08-30T08:05:56.729Z,28.22
2017-08-30T08:06:37.246Z,28.22
2017-08-30T08:07:17.867Z,28.3
2017-08-30T08:07:58.395Z,28.24
2017-08-30T08:08:38.951Z,28.15
2017-08-30T08:09:19.469Z,28.14
2017-08-30T08:10:00.025Z,27.9
2017-08-30T08:10:40.558Z,27.94
2017-08-30T08:11:21.174Z,27.96
2017-08-30T08:12:01.749Z,27.97
2017-08-30T08:12:42.289Z,27.9
2017-08-30T08:13:22.799Z,28.02
2017-08-30T08:14:03.365Z,27.99
2017-08-30T08:14:43.895Z,28
2017-08-30T08:15:24.462Z,28.09
2017-08-30T08:16:05.014Z,28.18
2017-08-30T08:16:45.557Z,28.09
2017-08-30T08:17:26.111Z,28.22
2017-08-30T08:18:06.655Z,28.27
2017-08-30T08:18:47.205Z,28.31
2017-08-30T08:19:27.727Z,28.27
2017-08-30T08:20:08.343Z,28.24
2017-08-30T08:20:48.904Z,28.24
2017-08-30T08:21:29.437Z,28.36
2017-08-30T08:22:10.587Z,28.33
2017-08-30T08:22:50.531Z,28.3
2017-08-30T08:23:31.034Z,28.37
2017-08-30T08:24:11.609Z,28.3
2017-08-30T08:24:52.193Z,28.37
2017-08-30T08:25:32.748Z,28.37
2017-08-30T08:26:13.318Z,28.3
2017-08-30T08:26:53.852Z,28.31
2017-08-30T08:27:34.416Z,28.33
2017-08-30T08:28:15.009Z,28.31
2017-08-30T08:28:55.504Z,28.36
2017-08-30T08:29:36.488Z,28.34
2017-08-30T08:30:18.090Z,28.31
2017-08-30T08:30:57.690Z,28.34
2017-08-30T08:31:38.247Z,28.33
2017-08-30T08:32:18.783Z,28.3
2017-08-30T08:32:59.307Z,28.31
2017-08-30T08:33:39.864Z,28.3
2017-08-30T08:34:20.432Z,28.24
2017-08-30T08:35:00.962Z,28.31
2017-08-30T08:35:41.518Z,28.31
2017-08-30T08:36:22.045Z,28.3
2017-08-30T08:37:02.624Z,28.29
2017-08-30T08:37:43.217Z,28.34
2017-08-30T08:38:23.735Z,28.39
2017-08-30T08:39:04.347Z,28.34
2017-08-30T08:39:44.915Z,28.29
2017-08-30T08:40:25.418Z,28.24
2017-08-30T08:41:06.053Z,28.24
2017-08-30T08:41:46.607Z,28.19
2017-08-30T08:42:27.285Z,28.22
2017-08-30T08:43:07.704Z,28.33
2017-08-30T08:43:48.230Z,28.3
2017-08-30T08:44:28.798Z,28.29
2017-08-30T08:45:09.437Z,28.22
2017-08-30T08:45:49.932Z,28.34
2017-08-30T08:46:30.539Z,28.39
2017-08-30T08:47:11.065Z,28.46
2017-08-30T08:47:51.663Z,28.44
2017-08-30T08:48:32.232Z,28.59